Time;durP1;ratioP1;P1;durP2;ratioP2;P2;SDS_P1;SDS_P2;PMS_P1;PMS_P2;Temp;Humidity;BMP_temperature;BMP_pressure;BME280_temperature;BME280_humidity;BME280_pressure;Samples;Min_cycle;Max_cycle;Signal;HPM_P1;HPM_P2
2022/06/28 00:01:54;;;;;;;0.30;0.30;;;22.90;75.30;;;;;;4191246;28;20056;-70
2022/06/28 00:04:16;;;;;;;0.00;0.00;;;22.90;75.30;;;;;;4192179;28;20069;-70
2022/06/28 00:06:38;;;;;;;0.00;0.00;;;23.00;75.30;;;;;;4192394;28;20063;-70
2022/06/28 00:09:00;;;;;;;0.05;0.05;;;22.90;75.30;;;;;;4191793;28;20043;-70
2022/06/28 00:11:22;;;;;;;0.00;0.00;;;22.90;75.20;;;;;;4192204;28;20135;-70
2022/06/28 00:13:45;;;;;;;0.15;0.15;;;22.90;75.20;;;;;;4192475;28;20106;-69
2022/06/28 00:16:06;;;;;;;0.00;0.00;;;22.90;75.10;;;;;;4191740;28;20095;-69
2022/06/28 00:18:29;;;;;;;0.08;0.08;;;22.90;75.10;;;;;;4192669;28;20040;-70
2022/06/28 00:20:51;;;;;;;0.00;0.00;;;22.90;75.10;;;;;;4191870;28;20056;-70
2022/06/28 00:23:13;;;;;;;0.00;0.00;;;22.90;75.10;;;;;;4190946;28;20049;-70
2022/06/28 00:25:35;;;;;;;0.00;0.00;;;22.90;75.10;;;;;;4190767;28;20080;-71
2022/06/28 00:27:57;;;;;;;0.00;0.00;;;22.90;75.10;;;;;;4192282;28;20494;-70
2022/06/28 00:30:20;;;;;;;0.85;0.85;;;22.90;75.10;;;;;;4190649;28;20075;-71
2022/06/28 00:32:43;;;;;;;0.00;0.00;;;22.90;75.00;;;;;;4192214;28;20063;-72
2022/06/28 00:35:07;;;;;;;0.00;0.00;;;22.90;75.00;;;;;;4190338;28;20058;-71
2022/06/28 00:37:29;;;;;;;0.00;0.00;;;22.90;75.00;;;;;;4190878;28;20049;-71
2022/06/28 00:39:51;;;;;;;6.35;0.80;;;22.80;74.90;;;;;;4190319;28;20063;-72
2022/06/28 00:42:13;;;;;;;0.00;0.00;;;22.80;74.90;;;;;;4190852;28;20117;-72
2022/06/28 00:44:35;;;;;;;0.00;0.00;;;22.80;74.90;;;;;;4190646;28;20056;-71
2022/06/28 00:46:59;;;;;;;0.00;0.00;;;22.80;74.90;;;;;;4187932;28;20052;-72
2022/06/28 00:49:21;;;;;;;0.00;0.00;;;22.80;74.90;;;;;;4190356;28;20136;-72
2022/06/28 00:51:44;;;;;;;0.00;0.00;;;22.80;74.90;;;;;;4190722;28;20531;-72
2022/06/28 00:54:06;;;;;;;0.15;0.15;;;22.80;74.90;;;;;;4189956;28;20182;-71
2022/06/28 00:56:28;;;;;;;0.00;0.00;;;22.80;74.80;;;;;;4192351;28;20044;-70
2022/06/28 00:58:52;;;;;;;0.00;0.00;;;22.80;74.90;;;;;;4190016;28;20530;-71
2022/06/28 01:01:15;;;;;;;0.00;0.00;;;22.70;74.70;;;;;;4191131;28;20052;-70
2022/06/28 01:03:39;;;;;;;0.00;0.00;;;22.70;74.70;;;;;;4175777;28;20103;-71
2022/06/28 01:06:01;;;;;;;0.00;0.00;;;22.70;74.70;;;;;;4191121;28;20118;-71
2022/06/28 01:08:23;;;;;;;0.00;0.00;;;22.70;74.70;;;;;;4158625;28;20152;-70
2022/06/28 01:10:46;;;;;;;0.17;0.17;;;22.70;74.70;;;;;;4156987;28;20080;-71
2022/06/28 01:13:10;;;;;;;0.00;0.00;;;22.70;74.70;;;;;;4159236;28;20140;-71
2022/06/28 01:15:34;;;;;;;0.00;0.00;;;22.70;74.70;;;;;;4160115;28;20069;-71
2022/06/28 01:18:00;;;;;;;0.00;0.00;;;22.70;74.70;;;;;;4161090;28;20084;-72
2022/06/28 01:20:36;;;;;;;0.00;0.00;;;22.70;74.70;;;;;;4160614;28;20043;-71
2022/06/28 01:23:19;;;;;;;;;;;22.70;74.60;;;;;;4160824;28;20053;-72
2022/06/28 01:25:45;;;;;;;0.00;0.00;;;22.70;74.60;;;;;;4191214;28;19989;-72
2022/06/28 01:28:10;;;;;;;0.00;0.00;;;22.70;74.60;;;;;;4179293;28;20033;-71
2022/06/28 01:30:33;;;;;;;0.10;0.10;;;22.60;74.50;;;;;;4193527;28;20059;-72
2022/06/28 01:33:03;;;;;;;0.20;0.20;;;22.60;74.60;;;;;;4179047;28;20040;-72
2022/06/28 01:35:27;;;;;;;0.10;0.10;;;22.70;74.60;;;;;;4160313;28;20397;-72
2022/06/28 01:37:49;;;;;;;0.15;0.15;;;22.60;74.50;;;;;;4169183;28;20060;-72
2022/06/28 01:40:15;;;;;;;0.00;0.00;;;22.60;74.50;;;;;;4193000;28;20407;-72
2022/06/28 01:42:38;;;;;;;0.00;0.00;;;22.60;74.50;;;;;;4193122;28;20095;-71
2022/06/28 01:45:01;;;;;;;0.00;0.00;;;22.60;74.50;;;;;;4193050;28;20060;-71
2022/06/28 01:47:29;;;;;;;0.00;0.00;;;22.60;74.50;;;;;;4193314;28;20048;-71
2022/06/28 01:50:24;;;;;;;0.00;0.00;;;22.60;74.50;;;;;;4192585;28;20044;-71
2022/06/28 01:52:46;;;;;;;0.00;0.00;;;22.60;74.40;;;;;;4192988;28;20059;-70
2022/06/28 01:55:43;;;;;;;0.45;0.38;;;22.60;74.40;;;;;;4175861;28;20060;-70
2022/06/28 01:58:22;;;;;;;0.00;0.00;;;22.60;74.40;;;;;;4192492;28;20067;-71
2022/06/28 02:00:44;;;;;;;0.00;0.00;;;22.50;74.30;;;;;;4193035;28;20044;-71
2022/06/28 02:03:07;;;;;;;0.00;0.00;;;22.50;74.30;;;;;;4193195;28;20582;-70
2022/06/28 02:05:44;;;;;;;0.00;0.00;;;22.50;74.30;;;;;;4192554;28;20045;-71
2022/06/28 02:08:08;;;;;;;0.00;0.00;;;22.50;74.30;;;;;;4192653;28;20106;-71
2022/06/28 02:10:47;;;;;;;0.43;0.32;;;22.50;74.30;;;;;;4192934;28;20074;-71
2022/06/28 02:13:10;;;;;;;0.00;0.00;;;22.50;74.30;;;;;;4192556;27;20056;-71
2022/06/28 02:15:32;;;;;;;0.90;0.65;;;22.50;74.30;;;;;;4192895;28;20135;-71
2022/06/28 02:17:58;;;;;;;0.00;0.00;;;22.50;74.20;;;;;;4192238;28;20067;-71
2022/06/28 02:20:20;;;;;;;0.20;0.20;;;22.50;74.20;;;;;;4192524;28;20109;-71
2022/06/28 02:22:42;;;;;;;0.30;0.28;;;22.50;74.20;;;;;;4192257;28;20624;-71
2022/06/28 02:25:05;;;;;;;0.00;0.00;;;22.50;74.20;;;;;;4191781;28;20491;-71
2022/06/28 02:27:28;;;;;;;0.00;0.00;;;22.50;74.20;;;;;;4192602;28;20076;-70
2022/06/28 02:29:51;;;;;;;0.00;0.00;;;22.50;74.10;;;;;;4192402;28;20539;-71
2022/06/28 02:32:13;;;;;;;0.00;0.00;;;22.40;74.10;;;;;;4193732;28;20055;-72
2022/06/28 02:42:34;;;;;;;0.00;0.00;;;22.50;74.90;;;;;;4192066;28;20561;-72
2022/06/28 02:44:57;;;;;;;0.00;0.00;;;22.40;74.00;;;;;;4193600;28;20040;-72
2022/06/28 02:47:19;;;;;;;0.00;0.00;;;22.40;74.00;;;;;;4194074;28;20044;-72
2022/06/28 02:49:41;;;;;;;0.00;0.00;;;22.40;74.00;;;;;;4175915;28;20052;-71
2022/06/28 02:52:04;;;;;;;0.00;0.00;;;22.40;73.90;;;;;;4176997;28;20060;-70
2022/06/28 02:54:26;;;;;;;0.32;0.30;;;22.40;73.90;;;;;;4129078;28;20052;-71
2022/06/28 02:56:48;;;;;;;0.10;0.10;;;22.40;73.90;;;;;;4144400;28;20141;-71
2022/06/28 02:59:11;;;;;;;0.00;0.00;;;22.40;73.90;;;;;;4143967;28;20060;-71
2022/06/28 03:01:34;;;;;;;0.00;0.00;;;22.40;73.90;;;;;;4162601;28;20041;-71
2022/06/28 03:03:56;;;;;;;0.00;0.00;;;22.40;73.80;;;;;;4161291;28;20053;-71
2022/06/28 03:06:19;;;;;;;0.00;0.00;;;22.30;73.70;;;;;;4192112;28;20068;-71
2022/06/28 03:08:42;;;;;;;0.00;0.00;;;22.40;73.80;;;;;;4191817;28;20053;-70
2022/06/28 03:11:04;;;;;;;0.00;0.00;;;22.40;73.70;;;;;;4192109;28;20131;-71
2022/06/28 03:13:26;;;;;;;0.00;0.00;;;22.30;73.70;;;;;;4191310;28;20048;-72
2022/06/28 03:15:49;;;;;;;0.00;0.00;;;22.30;73.70;;;;;;4193537;28;20102;-71
2022/06/28 03:18:11;;;;;;;0.00;0.00;;;22.30;73.70;;;;;;4192987;28;20411;-71
2022/06/28 03:20:34;;;;;;;0.08;0.08;;;22.30;73.70;;;;;;4192428;28;20136;-71
2022/06/28 03:22:56;;;;;;;0.00;0.00;;;22.30;73.60;;;;;;4192698;28;20041;-71
2022/06/28 03:25:18;;;;;;;0.00;0.00;;;22.30;73.70;;;;;;4177914;28;20111;-71
2022/06/28 03:27:41;;;;;;;0.03;0.03;;;22.30;73.60;;;;;;4191477;28;20055;-70
2022/06/28 03:30:03;;;;;;;0.00;0.00;;;22.30;73.60;;;;;;4191406;28;20131;-69
2022/06/28 03:32:27;;;;;;;0.00;0.00;;;22.30;73.60;;;;;;4191050;28;20195;-71
2022/06/28 03:34:50;;;;;;;0.10;0.10;;;22.20;73.50;;;;;;4190770;27;20070;-71
2022/06/28 03:37:15;;;;;;;0.00;0.00;;;22.20;73.50;;;;;;4158518;28;20053;-70
2022/06/28 03:39:41;;;;;;;1.25;0.85;;;22.30;73.50;;;;;;4158708;28;20111;-71
2022/06/28 03:42:04;;;;;;;0.30;0.30;;;22.30;73.50;;;;;;4158681;28;20408;-71
2022/06/28 03:44:28;;;;;;;0.10;0.10;;;22.20;73.40;;;;;;4158385;28;20069;-71
2022/06/28 03:46:52;;;;;;;0.00;0.00;;;22.20;73.40;;;;;;4160581;28;20053;-71
2022/06/28 03:49:34;;;;;;;0.00;0.00;;;22.30;73.40;;;;;;4192787;28;20482;-69
2022/06/28 03:52:35;;;;;;;0.00;0.00;;;22.30;73.30;;;;;;4190700;28;20094;-70
2022/06/28 03:55:11;;;;;;;0.00;0.00;;;22.20;73.30;;;;;;4175749;28;20072;-70
2022/06/28 03:57:36;;;;;;;0.00;0.00;;;22.20;73.20;;;;;;4174437;28;20056;-71
2022/06/28 04:00:01;;;;;;;0.00;0.00;;;22.20;73.20;;;;;;4174963;28;20518;-70
2022/06/28 04:02:34;;;;;;;0.00;0.00;;;22.20;73.20;;;;;;4175594;28;20132;-70
2022/06/28 04:04:58;;;;;;;0.00;0.00;;;22.20;73.20;;;;;;4174488;28;20142;-70
2022/06/28 04:07:22;;;;;;;0.10;0.10;;;22.20;73.10;;;;;;4175780;28;20057;-69
2022/06/28 04:09:44;;;;;;;0.00;0.00;;;22.20;74.00;;;;;;4174532;28;20232;-70
2022/06/28 04:12:07;;;;;;;0.60;0.35;;;22.20;73.10;;;;;;4175034;28;20052;-70
2022/06/28 04:14:30;;;;;;;0.20;0.20;;;22.20;73.10;;;;;;4127633;28;20539;-70
2022/06/28 04:16:53;;;;;;;0.00;0.00;;;22.20;73.00;;;;;;4141679;28;20469;-70
2022/06/28 04:19:28;;;;;;;0.00;0.00;;;22.30;73.00;;;;;;4141647;28;20057;-70
2022/06/28 04:21:51;;;;;;;0.00;0.00;;;22.20;72.90;;;;;;4155375;28;20140;-70
2022/06/28 04:24:16;;;;;;;0.00;0.00;;;22.20;72.90;;;;;;4160309;28;20056;-70
2022/06/28 04:27:01;;;;;;;0.00;0.00;;;22.20;72.90;;;;;;4192005;28;20068;-70
2022/06/28 04:29:24;;;;;;;0.10;0.10;;;22.20;72.90;;;;;;4176257;28;20407;-70
2022/06/28 04:31:46;;;;;;;0.00;0.00;;;22.20;72.90;;;;;;4190904;28;20140;-71
2022/06/28 04:34:08;;;;;;;0.20;0.20;;;22.20;72.90;;;;;;4189619;28;20476;-71
2022/06/28 04:36:34;;;;;;;0.00;0.00;;;22.20;72.90;;;;;;4190352;28;20074;-70
2022/06/28 04:38:58;;;;;;;0.00;0.00;;;22.20;73.00;;;;;;4190865;28;20047;-70
2022/06/28 04:41:26;;;;;;;0.55;0.55;;;22.20;72.90;;;;;;4190273;28;20053;-71
2022/06/28 04:43:50;;;;;;;0.00;0.00;;;22.10;72.90;;;;;;4190337;28;20576;-70
2022/06/28 04:46:16;;;;;;;0.13;0.13;;;22.10;72.90;;;;;;4190419;28;20105;-71
2022/06/28 04:48:40;;;;;;;0.00;0.00;;;22.20;73.00;;;;;;4191429;28;20051;-70
2022/06/28 04:51:11;;;;;;;0.00;0.00;;;22.20;72.90;;;;;;4190984;28;20126;-69
2022/06/28 04:53:39;;;;;;;0.00;0.00;;;22.20;73.40;;;;;;4189859;28;20407;-69
2022/06/28 04:56:03;;;;;;;0.52;0.52;;;22.20;73.60;;;;;;4173662;28;20048;-70
2022/06/28 04:58:25;;;;;;;1.67;1.13;;;22.30;73.40;;;;;;4173253;28;20037;-70
2022/06/28 05:00:47;;;;;;;0.47;0.47;;;22.30;73.20;;;;;;4173732;28;20594;-70
2022/06/28 05:03:30;;;;;;;0.00;0.00;;;22.40;73.00;;;;;;4174787;28;20045;-71
2022/06/28 05:05:58;;;;;;;0.00;0.00;;;22.30;72.80;;;;;;4172987;28;20102;-70
2022/06/28 05:08:20;;;;;;;0.00;0.00;;;22.30;72.50;;;;;;4175443;28;20051;-70
2022/06/28 05:10:52;;;;;;;0.00;0.00;;;22.30;72.40;;;;;;4190213;28;20073;-70
2022/06/28 05:13:34;;;;;;;0.08;0.08;;;22.30;72.20;;;;;;4173041;28;20083;-70
2022/06/28 05:15:58;;;;;;;0.00;0.00;;;22.30;72.20;;;;;;4140308;28;20887;-72
2022/06/28 05:18:20;;;;;;;0.25;0.25;;;22.30;72.20;;;;;;4168492;28;20053;-72
2022/06/28 05:20:42;;;;;;;0.32;0.32;;;22.30;72.20;;;;;;4141695;28;20058;-72
2022/06/28 05:23:04;;;;;;;0.00;0.00;;;22.40;72.20;;;;;;4154564;28;20037;-72
2022/06/28 05:25:45;;;;;;;0.00;0.00;;;22.40;71.80;;;;;;4174921;28;20068;-72
2022/06/28 05:28:07;;;;;;;0.00;0.00;;;22.50;71.40;;;;;;4174196;28;20064;-72
2022/06/28 05:30:30;;;;;;;0.20;0.20;;;22.60;71.10;;;;;;4173741;28;20085;-72
2022/06/28 05:32:52;;;;;;;0.00;0.00;;;22.70;70.70;;;;;;4173174;28;20531;-73
2022/06/28 05:35:14;;;;;;;0.10;0.10;;;22.70;70.20;;;;;;4174896;28;20056;-73
2022/06/28 05:37:37;;;;;;;0.00;0.00;;;22.80;69.90;;;;;;4173085;28;20049;-73
2022/06/28 05:39:59;;;;;;;0.65;0.65;;;22.80;69.60;;;;;;4190364;28;20542;-73
2022/06/28 05:42:21;;;;;;;0.00;0.00;;;22.80;69.40;;;;;;4189957;28;20106;-73
2022/06/28 05:44:43;;;;;;;0.00;0.00;;;22.90;70.20;;;;;;4191711;28;20127;-73
2022/06/28 05:47:07;;;;;;;0.17;0.17;;;22.90;69.10;;;;;;4189431;28;20056;-73
2022/06/28 05:49:29;;;;;;;0.00;0.00;;;22.90;68.80;;;;;;4191284;28;20049;-73
2022/06/28 05:51:51;;;;;;;0.00;0.00;;;23.00;68.80;;;;;;4189401;28;20048;-72
2022/06/28 05:54:14;;;;;;;3.40;1.75;;;22.90;68.70;;;;;;4190068;28;20059;-73
2022/06/28 05:56:37;;;;;;;0.00;0.00;;;22.90;68.70;;;;;;4189352;28;20173;-73
2022/06/28 05:58:59;;;;;;;0.00;0.00;;;22.90;68.80;;;;;;4191669;28;20052;-73
2022/06/28 06:01:22;;;;;;;0.00;0.00;;;22.90;68.90;;;;;;4178939;28;20052;-73
2022/06/28 06:03:46;;;;;;;0.00;0.00;;;22.90;69.10;;;;;;4193011;28;20051;-73
2022/06/28 06:06:09;;;;;;;0.00;0.00;;;22.80;69.20;;;;;;4192849;28;20048;-73
2022/06/28 06:08:31;;;;;;;0.17;0.17;;;22.80;69.40;;;;;;4193092;28;20052;-73
2022/06/28 06:10:53;;;;;;;0.20;0.20;;;22.80;69.60;;;;;;4191958;28;20051;-73
2022/06/28 06:13:15;;;;;;;0.00;0.00;;;22.80;69.60;;;;;;4193172;28;20121;-74
2022/06/28 06:15:37;;;;;;;0.00;0.00;;;22.80;69.70;;;;;;4185211;28;20137;-73
2022/06/28 06:18:00;;;;;;;0.00;0.00;;;22.80;69.80;;;;;;4173889;28;20095;-73
2022/06/28 06:20:24;;;;;;;0.00;0.00;;;22.80;69.80;;;;;;4192727;28;20128;-73
2022/06/28 06:22:47;;;;;;;0.20;0.20;;;22.80;69.70;;;;;;4194007;28;20041;-73
2022/06/28 06:25:32;;;;;;;0.00;0.00;;;22.80;69.70;;;;;;4192840;28;20056;-71
2022/06/28 06:27:55;;;;;;;0.00;0.00;;;22.80;69.70;;;;;;4192409;28;20435;-71
2022/06/28 06:30:17;;;;;;;0.10;0.10;;;22.80;69.70;;;;;;4193049;28;20113;-72
2022/06/28 06:32:55;;;;;;;0.00;0.00;;;22.70;69.80;;;;;;4190168;28;20036;-74
2022/06/28 06:35:51;;;;;;;1.15;1.05;;;22.70;69.90;;;;;;4168685;28;20142;-72
2022/06/28 06:38:13;;;;;;;1.23;0.90;;;22.70;69.90;;;;;;4176111;28;20086;-73
2022/06/28 06:40:38;;;;;;;0.05;0.05;;;22.70;69.90;;;;;;4186872;28;20133;-72
2022/06/28 06:43:00;;;;;;;0.85;0.85;;;22.60;69.80;;;;;;4167333;28;20069;-73
2022/06/28 06:45:27;;;;;;;0.00;0.00;;;22.60;70.60;;;;;;4182053;28;20051;-72
2022/06/28 06:47:49;;;;;;;0.75;0.52;;;22.60;70.50;;;;;;4192448;28;20047;-73
2022/06/28 06:50:11;;;;;;;1.10;0.77;;;22.60;69.60;;;;;;4191627;28;20063;-71
2022/06/28 06:52:36;;;;;;;0.15;0.15;;;22.70;69.30;;;;;;4176246;28;20049;-73
2022/06/28 06:55:00;;;;;;;0.10;0.10;;;22.80;69.00;;;;;;4175573;28;20131;-73
2022/06/28 06:57:23;;;;;;;1.65;1.00;;;22.80;68.70;;;;;;4175664;28;20053;-72
2022/06/28 06:59:45;;;;;;;0.00;0.00;;;22.90;68.40;;;;;;4179672;28;20050;-72
2022/06/28 07:02:08;;;;;;;0.00;0.00;;;23.00;68.00;;;;;;4192077;28;20053;-71
2022/06/28 07:04:39;;;;;;;1.08;1.08;;;23.00;67.60;;;;;;4220377;28;20055;-71
2022/06/28 07:07:02;;;;;;;0.13;0.13;;;23.10;67.30;;;;;;4191714;28;20228;-71
2022/06/28 07:09:25;;;;;;;1.08;0.80;;;23.20;67.00;;;;;;4191881;28;20045;-71
2022/06/28 07:11:47;;;;;;;0.00;0.00;;;23.20;66.70;;;;;;4191676;28;20048;-71
2022/06/28 07:14:10;;;;;;;1.17;1.17;;;23.30;66.40;;;;;;4192132;28;20049;-71
2022/06/28 07:16:33;;;;;;;0.10;0.10;;;23.30;66.00;;;;;;4191987;28;20550;-71
2022/06/28 07:18:55;;;;;;;0.40;0.40;;;23.40;65.70;;;;;;4191437;28;20055;-71
2022/06/28 07:21:18;;;;;;;0.00;0.00;;;23.40;65.60;;;;;;4192851;28;20147;-71
2022/06/28 07:23:41;;;;;;;0.00;0.00;;;23.40;66.00;;;;;;4191893;28;20055;-71
2022/06/28 07:26:05;;;;;;;0.00;0.00;;;23.40;65.00;;;;;;4191666;28;20082;-71
2022/06/28 07:28:27;;;;;;;0.00;0.00;;;23.50;65.00;;;;;;4193104;28;20159;-70
2022/06/28 07:30:49;;;;;;;0.00;0.00;;;23.50;64.80;;;;;;4189768;28;20435;-71
2022/06/28 07:33:11;;;;;;;0.28;0.28;;;23.50;64.80;;;;;;4159099;28;20033;-72
2022/06/28 07:35:33;;;;;;;0.00;0.00;;;23.60;64.80;;;;;;4158632;28;20046;-71
2022/06/28 07:37:56;;;;;;;0.00;0.00;;;23.60;64.70;;;;;;4178927;28;20405;-72
2022/06/28 07:40:44;;;;;;;0.03;0.03;;;23.60;64.80;;;;;;4149114;28;20449;-72
2022/06/28 07:43:28;;;;;;;0.00;0.00;;;23.60;64.70;;;;;;4166119;28;20126;-72
2022/06/28 07:45:59;;;;;;;0.22;0.22;;;23.60;64.50;;;;;;4175107;28;20071;-72
2022/06/28 07:48:21;;;;;;;0.00;0.00;;;23.60;64.40;;;;;;4174732;28;20052;-71
2022/06/28 07:53:25;;;;;;;0.57;0.57;;;23.60;64.40;;;;;;4174807;28;20580;-71
2022/06/28 07:56:04;;;;;;;0.00;0.00;;;23.60;64.50;;;;;;4174838;28;20508;-71
2022/06/28 07:58:30;;;;;;;0.10;0.10;;;23.60;64.40;;;;;;4190735;28;20053;-71
2022/06/28 08:00:53;;;;;;;0.00;0.00;;;23.60;64.40;;;;;;4191534;28;20140;-71
2022/06/28 08:03:15;;;;;;;0.00;0.00;;;23.60;64.20;;;;;;4190947;28;20246;-71
2022/06/28 08:05:37;;;;;;;0.00;0.00;;;23.50;64.00;;;;;;4180508;28;20091;-71
2022/06/28 08:07:59;;;;;;;0.00;0.00;;;23.50;63.80;;;;;;4160812;28;20052;-70
2022/06/28 08:10:23;;;;;;;0.00;0.00;;;23.50;63.70;;;;;;4174052;28;20467;-71
2022/06/28 08:12:46;;;;;;;0.00;0.00;;;23.50;63.70;;;;;;4174884;28;20083;-70
2022/06/28 08:15:11;;;;;;;0.00;0.00;;;23.40;63.80;;;;;;4174185;28;20045;-70
2022/06/28 08:17:33;;;;;;;0.10;0.10;;;23.40;63.90;;;;;;4175412;28;20041;-71
2022/06/28 08:19:55;;;;;;;0.10;0.10;;;23.40;64.00;;;;;;4173860;28;20099;-70
2022/06/28 08:22:17;;;;;;;0.75;0.75;;;23.40;64.00;;;;;;4185012;28;20114;-70
2022/06/28 08:24:39;;;;;;;0.00;0.00;;;23.40;64.10;;;;;;4191057;28;20442;-70
2022/06/28 08:27:01;;;;;;;0.00;0.00;;;23.40;64.20;;;;;;4191020;28;20051;-69
2022/06/28 08:29:23;;;;;;;0.00;0.00;;;23.50;64.20;;;;;;4188679;28;20056;-69
2022/06/28 08:31:47;;;;;;;0.00;0.00;;;23.40;64.00;;;;;;4180144;28;20043;-71
2022/06/28 08:34:09;;;;;;;0.00;0.00;;;23.40;64.00;;;;;;4175658;28;20371;-71
2022/06/28 08:36:32;;;;;;;6.60;1.45;;;23.40;63.90;;;;;;4188130;28;20102;-71
2022/06/28 08:38:54;;;;;;;0.00;0.00;;;23.50;64.00;;;;;;4191877;28;20040;-71
2022/06/28 08:41:16;;;;;;;0.03;0.03;;;23.50;63.50;;;;;;4190630;28;20056;-72
2022/06/28 08:43:39;;;;;;;0.00;0.00;;;23.50;63.10;;;;;;4191879;28;20056;-72
2022/06/28 08:46:23;;;;;;;0.00;0.00;;;23.50;62.80;;;;;;4190875;28;20048;-70
2022/06/28 08:48:53;;;;;;;0.00;0.00;;;23.50;62.50;;;;;;4159233;28;20052;-70
2022/06/28 08:51:16;;;;;;;0.00;0.00;;;23.60;62.40;;;;;;4158611;28;20527;-70
2022/06/28 08:53:41;;;;;;;0.00;0.00;;;23.60;62.60;;;;;;4166563;28;20055;-70
2022/06/28 08:56:05;;;;;;;0.00;0.00;;;23.60;62.50;;;;;;4158978;28;20136;-71
2022/06/28 08:58:29;;;;;;;0.35;0.35;;;23.60;62.30;;;;;;4158824;28;20141;-71
2022/06/28 09:00:51;;;;;;;4.30;1.10;;;23.60;62.20;;;;;;4158734;28;20049;-71
2022/06/28 09:03:15;;;;;;;0.00;0.00;;;23.60;62.00;;;;;;4159614;28;20038;-71
2022/06/28 09:05:41;;;;;;;0.00;0.00;;;23.60;61.70;;;;;;4158733;28;20463;-71
2022/06/28 09:08:03;;;;;;;0.20;0.20;;;23.60;61.40;;;;;;4185943;28;20036;-70
2022/06/28 09:10:26;;;;;;;0.00;0.00;;;23.70;61.00;;;;;;4158738;28;20052;-71
2022/06/28 09:13:12;;;;;;;0.00;0.00;;;23.70;60.70;;;;;;4158630;28;20056;-72
2022/06/28 09:15:51;;;;;;;0.38;0.38;;;23.70;60.50;;;;;;4158583;28;20107;-71
2022/06/28 09:18:13;;;;;;;0.00;0.00;;;23.70;60.40;;;;;;4158768;28;20091;-71
2022/06/28 09:20:38;;;;;;;0.00;0.00;;;23.70;60.40;;;;;;4157265;28;20523;-71
2022/06/28 09:23:01;;;;;;;0.00;0.00;;;23.70;60.90;;;;;;4159005;28;20455;-71
2022/06/28 09:25:28;;;;;;;0.00;0.00;;;23.80;61.20;;;;;;4218064;28;20054;-72
2022/06/28 09:27:50;;;;;;;0.00;0.00;;;23.80;61.80;;;;;;4174846;28;20045;-72
2022/06/28 09:30:14;;;;;;;0.00;0.00;;;23.80;61.60;;;;;;4175113;28;20490;-72
2022/06/28 09:32:42;;;;;;;0.00;0.00;;;23.80;61.00;;;;;;4174373;28;20368;-73
2022/06/28 09:35:07;;;;;;;0.00;0.00;;;23.80;60.60;;;;;;4192684;28;20063;-72
2022/06/28 09:37:37;;;;;;;0.00;0.00;;;23.80;60.80;;;;;;4194548;28;20131;-73
2022/06/28 09:40:13;;;;;;;0.00;0.00;;;23.80;60.70;;;;;;4194576;28;20127;-73
2022/06/28 09:42:35;;;;;;;0.65;0.52;;;23.80;60.50;;;;;;4194696;28;20060;-73
2022/06/28 09:45:00;;;;;;;0.00;0.00;;;23.80;60.10;;;;;;4194446;28;20412;-70
2022/06/28 09:47:22;;;;;;;0.10;0.10;;;23.80;59.80;;;;;;4192708;28;20075;-72
2022/06/28 09:49:48;;;;;;;0.00;0.00;;;23.70;59.60;;;;;;4194018;28;20051;-72
2022/06/28 09:52:13;;;;;;;0.00;0.00;;;23.80;59.50;;;;;;4193886;28;20469;-72
2022/06/28 09:54:41;;;;;;;0.00;0.00;;;23.70;59.30;;;;;;4194188;28;20056;-71
2022/06/28 09:57:07;;;;;;;0.00;0.00;;;23.80;59.20;;;;;;4192578;28;20055;-70
2022/06/28 09:59:29;;;;;;;0.00;0.00;;;23.80;58.90;;;;;;4186256;28;20699;-70
2022/06/28 10:01:54;;;;;;;0.00;0.00;;;23.70;59.40;;;;;;4175839;28;20044;-70
2022/06/28 10:04:18;;;;;;;0.10;0.10;;;23.70;59.20;;;;;;4168429;28;20053;-71
2022/06/28 10:06:43;;;;;;;1.80;1.27;;;23.70;59.00;;;;;;4178239;28;20143;-70
2022/06/28 10:09:06;;;;;;;0.00;0.00;;;23.70;59.00;;;;;;4189488;28;20082;-71
2022/06/28 10:15:00;;;;;;;0.00;0.00;;;23.70;58.70;;;;;;4191925;28;20048;-71
2022/06/28 10:17:04;;;;;;;0.20;0.20;;;23.70;58.20;;;;;;4169856;28;20061;-72
2022/06/28 10:19:27;;;;;;;0.00;0.00;;;23.70;58.10;;;;;;4177767;28;20395;-71
2022/06/28 10:22:10;;;;;;;0.30;0.30;;;23.60;58.10;;;;;;4179169;28;20095;-71
2022/06/28 10:24:52;;;;;;;0.00;0.00;;;23.60;58.10;;;;;;4193616;28;20052;-71
2022/06/28 10:27:15;;;;;;;0.00;0.00;;;23.60;57.90;;;;;;4194043;28;20127;-71
2022/06/28 10:30:19;;;;;;;0.00;0.00;;;23.50;57.90;;;;;;4193712;28;20044;-72
2022/06/28 10:32:42;;;;;;;0.00;0.00;;;23.60;58.10;;;;;;4180661;28;20492;-72
2022/06/28 10:35:06;;;;;;;0.00;0.00;;;23.60;58.20;;;;;;4182359;28;20056;-71
2022/06/28 10:37:29;;;;;;;0.00;0.00;;;23.60;58.30;;;;;;4192305;28;20103;-72
2022/06/28 10:40:31;;;;;;;0.00;0.00;;;23.60;58.40;;;;;;4176014;28;20072;-71
2022/06/28 10:42:54;;;;;;;0.57;0.57;;;23.60;58.40;;;;;;4193740;27;20056;-71
2022/06/28 10:45:18;;;;;;;3.28;2.97;;;23.60;58.40;;;;;;4192538;28;20089;-70
2022/06/28 10:48:09;;;;;;;0.98;0.98;;;23.60;58.50;;;;;;4191802;28;20457;-70
2022/06/28 10:50:56;;;;;;;0.45;0.45;;;23.60;58.10;;;;;;4192575;28;20537;-71
2022/06/28 10:53:19;;;;;;;0.85;0.82;;;23.60;57.90;;;;;;4193091;28;20127;-71
2022/06/28 10:55:41;;;;;;;0.43;0.43;;;23.60;57.90;;;;;;4193311;28;20418;-71
2022/06/28 10:58:20;;;;;;;0.08;0.08;;;23.60;57.90;;;;;;4193669;28;20068;-70
2022/06/28 11:00:55;;;;;;;0.98;0.55;;;23.60;57.70;;;;;;4193774;28;20132;-71
2022/06/28 11:03:20;;;;;;;0.20;0.20;;;23.60;57.60;;;;;;4176811;28;20052;-70
2022/06/28 11:05:49;;;;;;;0.00;0.00;;;23.60;58.10;;;;;;4191575;28;20048;-70
2022/06/28 11:08:14;;;;;;;0.10;0.10;;;23.60;57.20;;;;;;4177340;28;20163;-70
2022/06/28 11:10:36;;;;;;;0.00;0.00;;;23.70;57.10;;;;;;4176899;28;20051;-70
2022/06/28 11:13:19;;;;;;;0.00;0.00;;;23.70;57.10;;;;;;4177191;28;20392;-70
2022/06/28 11:15:42;;;;;;;0.00;0.00;;;23.70;57.00;;;;;;4176494;28;20091;-70
2022/06/28 11:18:15;;;;;;;0.00;0.00;;;23.80;56.90;;;;;;4176879;28;20143;-70
2022/06/28 11:20:39;;;;;;;0.00;0.00;;;23.80;56.80;;;;;;4176310;28;20048;-70
2022/06/28 11:23:01;;;;;;;0.00;0.00;;;23.80;56.80;;;;;;4176732;28;20044;-70
2022/06/28 11:25:25;;;;;;;0.00;0.00;;;23.90;56.70;;;;;;4193186;28;20507;-71
2022/06/28 11:27:48;;;;;;;0.00;0.00;;;23.90;56.60;;;;;;4193392;28;20051;-71
2022/06/28 11:30:14;;;;;;;0.00;0.00;;;23.90;56.60;;;;;;4191456;28;20048;-71
2022/06/28 11:32:37;;;;;;;0.00;0.00;;;23.90;56.50;;;;;;4160336;28;20037;-72
2022/06/28 11:35:04;;;;;;;0.00;0.00;;;23.90;56.60;;;;;;4158427;28;20103;-71
2022/06/28 11:37:27;;;;;;;0.00;0.00;;;23.90;56.60;;;;;;4158825;28;20049;-71
2022/06/28 11:39:52;;;;;;;0.00;0.00;;;23.90;56.60;;;;;;4190199;28;20487;-70
2022/06/28 11:42:15;;;;;;;0.00;0.00;;;23.90;56.30;;;;;;4191301;28;20416;-71
2022/06/28 11:44:37;;;;;;;0.08;0.08;;;24.00;56.00;;;;;;4192417;28;20130;-71
2022/06/28 11:47:03;;;;;;;0.60;0.60;;;24.00;56.20;;;;;;4191467;28;20045;-71
2022/06/28 11:49:30;;;;;;;0.00;0.00;;;24.00;56.20;;;;;;4190575;28;20079;-71
2022/06/28 11:51:53;;;;;;;0.00;0.00;;;23.90;55.70;;;;;;4192652;28;20507;-73
2022/06/28 11:54:16;;;;;;;0.85;0.65;;;24.00;55.30;;;;;;4191988;28;20056;-70
2022/06/28 11:56:44;;;;;;;0.00;0.00;;;24.00;55.20;;;;;;4192601;28;20094;-70
2022/06/28 11:59:06;;;;;;;3.00;0.90;;;24.00;55.30;;;;;;4192302;28;20056;-69
2022/06/28 12:01:38;;;;;;;0.30;0.30;;;24.00;55.40;;;;;;4192203;28;20098;-70
2022/06/28 12:04:02;;;;;;;30.67;1.40;;;24.00;55.30;;;;;;4192281;28;20046;-70
2022/06/28 12:06:28;;;;;;;0.40;0.40;;;24.00;55.30;;;;;;4192158;28;20134;-70
2022/06/28 12:08:56;;;;;;;0.00;0.00;;;24.00;55.50;;;;;;4192791;28;20068;-70
2022/06/28 12:11:29;;;;;;;0.00;0.00;;;24.00;55.60;;;;;;4192363;28;20139;-69
2022/06/28 12:13:55;;;;;;;0.00;0.00;;;24.10;56.30;;;;;;4192037;28;20498;-71
2022/06/28 12:16:18;;;;;;;0.15;0.15;;;24.10;55.80;;;;;;4192260;28;20048;-72
2022/06/28 12:18:52;;;;;;;6.40;1.63;;;24.10;55.90;;;;;;4192493;28;20480;-72
2022/06/28 12:21:14;;;;;;;0.00;0.00;;;24.10;56.00;;;;;;4190673;28;20052;-72
2022/06/28 12:23:48;;;;;;;0.10;0.10;;;24.10;55.70;;;;;;4177618;28;20060;-72
2022/06/28 12:26:14;;;;;;;5.38;2.05;;;24.20;55.50;;;;;;4174805;28;20060;-72
2022/06/28 12:28:37;;;;;;;0.40;0.40;;;24.20;55.60;;;;;;4172307;28;20049;-72
2022/06/28 12:30:59;;;;;;;0.00;0.00;;;24.20;55.30;;;;;;4175658;28;20049;-72
2022/06/28 12:33:21;;;;;;;0.00;0.00;;;24.20;55.00;;;;;;4159100;28;20548;-73
2022/06/28 12:35:43;;;;;;;2.20;1.80;;;24.20;54.90;;;;;;4158750;28;20076;-71
2022/06/28 12:38:06;;;;;;;0.00;0.00;;;24.20;54.80;;;;;;4158158;28;20563;-72
2022/06/28 12:40:27;;;;;;;0.00;0.00;;;24.20;55.20;;;;;;4167600;28;20850;-71
2022/06/28 12:42:51;;;;;;;0.00;0.00;;;24.20;55.90;;;;;;4175753;28;20045;-72
2022/06/28 12:45:13;;;;;;;0.20;0.20;;;24.30;57.50;;;;;;4175390;28;20041;-71
2022/06/28 12:47:40;;;;;;;0.00;0.00;;;24.30;56.70;;;;;;4166825;28;20044;-72
2022/06/28 12:50:05;;;;;;;0.15;0.15;;;24.30;56.80;;;;;;4192682;28;20094;-72
2022/06/28 12:52:27;;;;;;;0.00;0.00;;;24.30;56.80;;;;;;4158376;28;20045;-72
2022/06/28 12:54:49;;;;;;;0.00;0.00;;;24.30;56.90;;;;;;4177623;28;20053;-71